Time;durP1;ratioP1;P1;durP2;ratioP2;P2;SDS_P1;SDS_P2;PMS_P1;PMS_P2;Temp;Humidity;BMP_temperature;BMP_pressure;BME280_temperature;BME280_humidity;BME280_pressure;Samples;Min_cycle;Max_cycle;Signal;HPM_P1;HPM_P2
2023/04/10 00:00:18;;;;;;;14.23;5.97;;;;;;;41.53;35.05;100895.78;4994268;28;20433;-84
2023/04/10 00:02:43;;;;;;;13.97;6.10;;;;;;;41.68;35.20;100884.31;4994758;28;20533;-83
2023/04/10 00:05:10;;;;;;;19.13;7.73;;;;;;;41.80;35.30;100889.03;5009850;28;20433;-83
2023/04/10 00:07:36;;;;;;;15.53;6.43;;;;;;;41.64;35.35;100864.31;4995133;28;20436;-83
2023/04/10 00:10:02;;;;;;;19.70;7.17;;;;;;;41.72;35.72;100866.16;4994007;28;20457;-83
2023/04/10 00:12:28;;;;;;;25.80;7.40;;;;;;;41.65;35.72;100856.94;4995953;28;20465;-83
2023/04/10 00:14:54;;;;;;;15.00;5.70;;;;;;;41.72;35.36;100863.44;5010537;28;20491;-84
2023/04/10 00:17:20;;;;;;;21.03;7.20;;;;;;;41.79;34.71;100852.03;5010665;28;20456;-83
2023/04/10 00:19:46;;;;;;;11.10;4.83;;;;;;;41.63;35.23;100832.75;4994504;28;20524;-84
2023/04/10 00:22:12;;;;;;;18.13;7.83;;;;;;;41.80;35.58;100848.16;5009463;28;20422;-84
2023/04/10 00:24:38;;;;;;;17.50;6.53;;;;;;;41.56;36.14;100849.63;4994313;28;20452;-83
2023/04/10 00:27:04;;;;;;;16.33;5.80;;;;;;;41.55;36.34;100844.50;4992724;28;20426;-84
2023/04/10 00:29:30;;;;;;;18.43;6.20;;;;;;;41.54;36.35;100840.19;4994071;28;20440;-84
2023/04/10 00:31:57;;;;;;;15.93;5.53;;;;;;;41.50;36.25;100842.78;4993526;28;20473;-83
2023/04/10 00:34:23;;;;;;;17.00;6.93;;;;;;;41.39;36.36;100838.88;4994012;28;20444;-82
2023/04/10 00:36:49;;;;;;;24.90;7.10;;;;;;;41.47;36.82;100838.00;4993408;28;20791;-83
2023/04/10 00:39:15;;;;;;;23.33;5.20;;;;;;;41.34;36.81;100817.28;4994077;28;20510;-82
2023/04/10 00:41:41;;;;;;;12.63;4.93;;;;;;;41.59;36.49;100829.88;4995297;28;20428;-82
2023/04/10 00:44:07;;;;;;;33.53;6.87;;;;;;;41.41;36.92;100822.97;4993239;28;20477;-82
2023/04/10 00:46:36;;;;;;;16.47;5.47;;;;;;;41.31;37.07;100818.72;4992416;28;20421;-82
2023/04/10 00:49:02;;;;;;;13.10;5.50;;;;;;;40.94;37.62;100795.88;5009452;28;21242;-82
2023/04/10 00:51:28;;;;;;;14.27;6.93;;;;;;;41.05;37.38;100809.91;5008153;28;20439;-82
2023/04/10 00:53:54;;;;;;;17.87;5.60;;;;;;;41.11;37.66;100796.91;4985831;28;20908;-83
2023/04/10 00:56:20;;;;;;;10.80;5.30;;;;;;;41.12;37.83;100804.72;4974927;28;20442;-82
2023/04/10 00:58:46;;;;;;;20.87;7.13;;;;;;;40.99;38.48;100803.06;4973977;28;20441;-82
2023/04/10 01:01:13;;;;;;;12.67;4.93;;;;;;;40.96;38.18;100793.63;4975045;28;20438;-82
2023/04/10 01:03:41;;;;;;;23.93;5.63;;;;;;;41.07;38.02;100794.06;4974142;28;20426;-82
2023/04/10 01:06:18;;;;;;;22.47;7.33;;;;;;;40.95;38.53;100802.13;4973541;28;20461;-81
2023/04/10 01:09:09;;;;;;;19.20;6.87;;;;;;;41.27;38.13;100811.53;4974070;28;20429;-83
2023/04/10 01:11:51;;;;;;;17.10;8.27;;;;;;;41.41;38.17;100803.94;4958035;28;20597;-82
2023/04/10 01:14:46;;;;;;;24.27;6.80;;;;;;;41.32;38.27;100806.72;4973663;28;21089;-83
2023/04/10 01:17:27;;;;;;;21.60;7.97;;;;;;;41.46;37.66;100797.50;4985901;28;20461;-83
2023/04/10 01:20:00;;;;;;;20.30;6.60;;;;;;;41.21;37.73;100794.59;4972839;28;20481;-83
2023/04/10 01:22:35;;;;;;;20.67;7.40;;;;;;;41.29;37.53;100791.00;5003385;28;20956;-83
2023/04/10 01:25:45;;;;;;;21.87;6.83;;;;;;;41.30;37.31;100773.53;5009220;28;20495;-84
2023/04/10 01:28:30;;;;;;;16.70;9.13;;;;;;;41.27;37.53;100779.66;4939402;28;20526;-83
2023/04/10 01:31:00;;;;;;;28.47;9.53;;;;;;;41.45;36.87;100782.28;4961767;28;20492;-83
2023/04/10 01:33:44;;;;;;;14.40;6.60;;;;;;;41.20;37.46;100784.84;4992299;28;20469;-84
2023/04/10 01:36:12;;;;;;;15.67;7.60;;;;;;;41.40;36.84;100777.84;4992574;28;20433;-82
2023/04/10 01:38:43;;;;;;;16.60;7.13;;;;;;;41.46;36.94;100773.00;4988721;28;20804;-83
2023/04/10 01:41:09;;;;;;;13.67;6.40;;;;;;;41.11;37.44;100751.44;4983904;28;20423;-83
2023/04/10 01:43:37;;;;;;;15.80;7.33;;;;;;;41.10;37.17;100749.84;4979180;28;20422;-84
2023/04/10 01:46:03;;;;;;;24.90;8.30;;;;;;;41.38;37.32;100761.03;4982367;28;21536;-83
2023/04/10 01:48:30;;;;;;;18.07;7.27;;;;;;;41.27;37.33;100755.16;4972872;28;20438;-83
2023/04/10 01:50:57;;;;;;;19.10;6.93;;;;;;;41.29;37.49;100750.19;4982775;28;20904;-84
2023/04/10 01:53:23;;;;;;;18.33;6.77;;;;;;;41.53;36.78;100751.47;5005086;28;20458;-84
2023/04/10 01:55:51;;;;;;;20.60;7.93;;;;;;;41.25;37.61;100743.00;4973120;28;20434;-83
2023/04/10 01:58:18;;;;;;;20.83;8.70;;;;;;;41.25;37.33;100738.38;4976457;28;20499;-82
2023/04/10 02:00:44;;;;;;;17.70;6.70;;;;;;;41.37;37.34;100737.66;4982258;28;20426;-83
2023/04/10 02:03:10;;;;;;;32.30;8.87;;;;;;;41.27;37.33;100729.88;4976097;28;20446;-83
2023/04/10 02:06:01;;;;;;;14.77;7.53;;;;;;;41.30;37.41;100727.28;4982312;28;20433;-83
2023/04/10 02:08:36;;;;;;;22.23;7.63;;;;;;;41.10;38.13;100740.88;4974633;28;20433;-81
2023/04/10 02:11:20;;;;;;;20.73;7.37;;;;;;;41.12;37.83;100731.25;4984860;28;20503;-82
2023/04/10 02:13:50;;;;;;;13.03;5.50;;;;;;;41.25;37.46;100727.50;4973005;28;20453;-83
2023/04/10 02:16:18;;;;;;;17.23;7.27;;;;;;;40.91;38.02;100717.66;4984752;28;20977;-83
2023/04/10 02:18:45;;;;;;;19.50;7.23;;;;;;;41.01;37.93;100730.88;4972932;28;20430;-82
2023/04/10 02:21:12;;;;;;;18.70;6.60;;;;;;;41.07;38.12;100726.81;4972579;28;20439;-82
2023/04/10 02:23:38;;;;;;;29.70;9.73;;;;;;;41.00;38.11;100718.38;4972483;28;20469;-82
2023/04/10 02:26:08;;;;;;;21.60;6.47;;;;;;;40.88;38.32;100726.44;4973785;28;20429;-82
2023/04/10 02:28:36;;;;;;;18.40;6.97;;;;;;;40.80;38.10;100733.53;4972522;28;20442;-82
2023/04/10 02:31:02;;;;;;;21.13;9.70;;;;;;;40.83;38.10;100723.91;4972744;28;20481;-83
2023/04/10 02:33:28;;;;;;;17.27;7.37;;;;;;;40.84;38.43;100719.28;4972292;28;20457;-82
2023/04/10 02:35:54;;;;;;;18.00;8.27;;;;;;;41.11;37.70;100721.50;4971958;28;20433;-82
2023/04/10 02:38:20;;;;;;;15.37;9.30;;;;;;;41.12;38.22;100725.03;4972664;28;20426;-82
2023/04/10 02:40:46;;;;;;;22.53;8.43;;;;;;;41.21;37.72;100717.59;4989167;28;20430;-83
2023/04/10 02:43:12;;;;;;;30.63;9.03;;;;;;;41.16;37.59;100717.78;4972027;28;20829;-83
2023/04/10 02:45:38;;;;;;;15.47;7.97;;;;;;;41.23;37.58;100720.78;4972332;28;20474;-82
2023/04/10 02:48:05;;;;;;;23.73;8.87;;;;;;;41.15;37.17;100727.09;4972605;28;20512;-83
2023/04/10 02:50:31;;;;;;;23.73;8.03;;;;;;;40.95;37.45;100739.56;4973239;28;20998;-82
2023/04/10 02:52:57;;;;;;;25.40;9.40;;;;;;;41.23;36.68;100743.34;4984228;28;20560;-84
2023/04/10 02:55:23;;;;;;;21.63;9.63;;;;;;;41.23;37.27;100742.56;4990851;28;20937;-83
2023/04/10 02:57:50;;;;;;;34.30;9.43;;;;;;;41.25;36.99;100738.38;4978516;28;20450;-82
2023/04/10 03:00:18;;;;;;;23.77;8.90;;;;;;;41.08;37.75;100747.47;4979758;28;20413;-82
2023/04/10 03:02:44;;;;;;;22.33;7.70;;;;;;;41.12;36.93;100750.31;4977929;28;20433;-81
2023/04/10 03:05:10;;;;;;;23.73;8.20;;;;;;;40.95;37.40;100751.25;4971888;28;20810;-83
2023/04/10 03:07:36;;;;;;;24.90;10.57;;;;;;;41.13;36.72;100754.66;4969948;28;20430;-83
2023/04/10 03:10:02;;;;;;;25.63;10.27;;;;;;;41.15;36.92;100762.47;4972198;28;20430;-82
2023/04/10 03:12:28;;;;;;;22.33;7.77;;;;;;;41.18;36.80;100765.31;4971568;28;20513;-84
2023/04/10 03:14:54;;;;;;;25.07;8.87;;;;;;;41.27;36.57;100757.88;4972065;28;20457;-83
2023/04/10 03:17:20;;;;;;;25.67;7.97;;;;;;;41.17;36.69;100750.13;4971625;28;20473;-83
2023/04/10 03:19:46;;;;;;;31.20;8.80;;;;;;;41.17;36.29;100752.84;4972153;28;20465;-83
2023/04/10 03:22:12;;;;;;;27.67;10.20;;;;;;;41.24;36.92;100757.75;4971966;28;20462;-81
2023/04/10 03:24:39;;;;;;;25.07;9.60;;;;;;;41.18;37.13;100759.06;4971932;28;20426;-82
2023/04/10 03:27:05;;;;;;;19.60;7.17;;;;;;;41.20;36.80;100745.94;4972266;28;20440;-82
2023/04/10 03:29:31;;;;;;;23.50;7.40;;;;;;;41.18;36.84;100748.97;4983738;28;20426;-82
2023/04/10 03:31:57;;;;;;;16.80;7.67;;;;;;;41.22;36.89;100758.09;4971607;28;20528;-84
2023/04/10 03:34:23;;;;;;;24.90;8.30;;;;;;;41.23;37.18;100745.28;4971850;28;20426;-82
2023/04/10 03:36:49;;;;;;;25.20;8.00;;;;;;;41.29;37.16;100744.72;4971608;28;20430;-83
2023/04/10 03:39:15;;;;;;;21.70;8.13;;;;;;;41.35;36.90;100745.38;4971960;28;20461;-82
2023/04/10 03:41:41;;;;;;;22.77;9.30;;;;;;;41.30;37.02;100749.03;4971772;28;20461;-82
2023/04/10 03:44:07;;;;;;;19.73;9.00;;;;;;;41.02;37.42;100731.66;4971779;28;20478;-82
2023/04/10 03:46:33;;;;;;;26.60;8.23;;;;;;;41.18;37.38;100742.75;4970394;28;20469;-82
2023/04/10 03:48:59;;;;;;;19.70;8.60;;;;;;;41.33;37.28;100740.25;4971657;28;20422;-83
2023/04/10 03:51:25;;;;;;;25.63;7.70;;;;;;;41.33;36.94;100737.53;4972855;28;20441;-82
2023/04/10 03:53:51;;;;;;;24.53;7.53;;;;;;;41.22;37.35;100739.03;4984502;28;20431;-82
2023/04/10 03:56:18;;;;;;;22.73;7.87;;;;;;;41.42;37.22;100742.91;4973780;28;20460;-82
2023/04/10 03:58:44;;;;;;;22.07;8.47;;;;;;;41.49;37.00;100743.16;4975810;28;20434;-82
2023/04/10 04:01:10;;;;;;;34.10;10.23;;;;;;;41.48;36.79;100736.13;4975657;28;20422;-83
2023/04/10 04:03:36;;;;;;;25.17;8.37;;;;;;;41.38;36.94;100739.25;4975352;28;20442;-84
2023/04/10 04:06:02;;;;;;;15.37;6.80;;;;;;;41.41;36.55;100743.25;4975423;28;20487;-84
2023/04/10 04:08:28;;;;;;;19.10;7.53;;;;;;;41.41;36.22;100737.78;4975308;28;22087;-82
2023/04/10 04:10:54;;;;;;;18.97;10.00;;;;;;;41.46;36.40;100751.22;4975257;28;20488;-82
2023/04/10 04:13:20;;;;;;;25.83;8.27;;;;;;;41.13;37.08;100738.31;4978972;28;20458;-83
2023/04/10 04:15:46;;;;;;;12.50;6.10;;;;;;;41.22;36.99;100724.63;4975202;28;20495;-82
2023/04/10 04:18:12;;;;;;;24.80;8.77;;;;;;;41.25;37.29;100741.09;4979509;28;20493;-82
2023/04/10 04:20:38;;;;;;;20.00;6.57;;;;;;;41.20;37.18;100748.66;4976427;28;20434;-83
2023/04/10 04:23:04;;;;;;;21.03;6.50;;;;;;;41.22;36.46;100724.63;4974891;28;21016;-83
2023/04/10 04:25:30;;;;;;;19.60;6.23;;;;;;;41.30;36.54;100743.59;4974942;28;21013;-83
2023/04/10 04:27:56;;;;;;;18.10;7.90;;;;;;;41.42;36.97;100755.72;4974811;28;20685;-84
2023/04/10 04:30:22;;;;;;;23.13;7.83;;;;;;;41.21;37.06;100755.69;4976366;28;20452;-83
2023/04/10 04:32:48;;;;;;;17.40;6.10;;;;;;;41.27;36.81;100755.16;4979253;28;20560;-82
2023/04/10 04:35:14;;;;;;;16.30;6.27;;;;;;;41.13;36.98;100770.97;4975171;28;20433;-82
2023/04/10 04:37:40;;;;;;;23.03;7.53;;;;;;;41.32;36.95;100763.16;4962740;28;20442;-82
2023/04/10 04:40:07;;;;;;;26.33;7.33;;;;;;;41.25;36.94;100764.78;4975214;28;20422;-82
2023/04/10 04:42:33;;;;;;;16.70;8.83;;;;;;;41.27;36.67;100748.94;4974845;28;20418;-83
2023/04/10 04:44:59;;;;;;;21.97;8.00;;;;;;;41.09;37.71;100767.31;4974218;28;20998;-83
2023/04/10 04:47:25;;;;;;;20.07;6.70;;;;;;;41.38;37.49;100766.50;4974308;28;20934;-83
2023/04/10 04:49:50;;;;;;;17.73;9.00;;;;;;;41.36;37.10;100774.16;4974690;28;20454;-82
2023/04/10 04:52:16;;;;;;;18.47;7.10;;;;;;;41.14;37.76;100772.56;4981467;28;20472;-82
2023/04/10 04:54:42;;;;;;;24.53;8.00;;;;;;;41.38;37.10;100766.50;4979860;28;20434;-82
2023/04/10 04:57:08;;;;;;;19.97;6.70;;;;;;;41.00;37.24;100783.66;4974224;28;20966;-82
2023/04/10 04:59:34;;;;;;;16.87;7.27;;;;;;;41.24;37.30;100791.19;4974121;28;20529;-82
2023/04/10 05:02:00;;;;;;;24.47;7.20;;;;;;;41.38;37.11;100787.47;4974195;28;20438;-82
2023/04/10 05:04:26;;;;;;;13.33;5.90;;;;;;;41.02;37.49;100792.31;4974519;28;20489;-82
2023/04/10 05:06:52;;;;;;;17.10;6.70;;;;;;;41.20;37.37;100797.66;4973729;28;20526;-82
2023/04/10 05:09:18;;;;;;;19.50;7.47;;;;;;;40.91;37.65;100807.41;4973513;28;21006;-82
2023/04/10 05:11:44;;;;;;;19.07;8.57;;;;;;;41.25;37.31;100805.59;4973743;28;20545;-83
2023/04/10 05:14:10;;;;;;;24.10;7.80;;;;;;;41.21;37.08;100816.38;4973960;28;20488;-82
2023/04/10 05:16:36;;;;;;;20.97;8.37;;;;;;;41.24;37.05;100807.53;4973915;28;20458;-82
2023/04/10 05:19:02;;;;;;;24.90;9.20;;;;;;;41.20;37.52;100808.53;4974071;28;20484;-83
2023/04/10 05:21:28;;;;;;;24.47;8.23;;;;;;;41.41;37.04;100828.44;4974450;28;20419;-82
2023/04/10 05:23:54;;;;;;;19.00;8.13;;;;;;;41.48;37.13;100823.25;4974297;28;20930;-82
2023/04/10 05:26:20;;;;;;;19.77;7.00;;;;;;;41.12;38.08;100825.69;4974371;28;20422;-82
2023/04/10 05:28:46;;;;;;;27.30;8.53;;;;;;;41.38;37.74;100817.41;4974842;28;20801;-81
2023/04/10 05:31:12;;;;;;;21.57;7.10;;;;;;;41.42;37.28;100816.41;4970675;28;20419;-83
2023/04/10 05:33:38;;;;;;;18.50;7.50;;;;;;;41.26;37.82;100820.84;4968810;28;20473;-84
2023/04/10 05:36:04;;;;;;;26.80;7.83;;;;;;;41.43;37.75;100823.44;4973364;28;20433;-83
2023/04/10 05:38:30;;;;;;;24.00;7.03;;;;;;;41.48;37.46;100825.19;4974310;28;20457;-83
2023/04/10 05:40:56;;;;;;;16.43;6.80;;;;;;;41.45;37.52;100829.38;4973463;28;20426;-84
2023/04/10 05:43:22;;;;;;;18.77;6.30;;;;;;;41.47;37.48;100835.28;4973982;28;20485;-84
2023/04/10 05:45:48;;;;;;;15.30;8.60;;;;;;;41.40;37.58;100836.94;4968580;28;20537;-82
2023/04/10 05:48:14;;;;;;;15.23;6.90;;;;;;;41.35;38.03;100840.63;4974235;28;20450;-82
2023/04/10 05:50:40;;;;;;;18.57;7.23;;;;;;;41.54;36.88;100840.97;4974193;28;20430;-81
2023/04/10 05:53:06;;;;;;;17.13;6.50;;;;;;;41.39;37.49;100843.50;4978826;28;20230;-82
2023/04/10 05:55:32;;;;;;;14.90;6.20;;;;;;;41.37;37.41;100845.75;4974280;28;20274;-84
2023/04/10 05:57:58;;;;;;;16.43;7.40;;;;;;;41.42;37.42;100851.00;4973195;28;20442;-82
2023/04/10 06:00:24;;;;;;;19.87;7.10;;;;;;;41.60;37.48;100856.00;4979214;28;20437;-82
2023/04/10 06:02:50;;;;;;;25.77;8.00;;;;;;;41.54;37.68;100867.41;4973941;28;20655;-82
2023/04/10 06:05:16;;;;;;;15.10;6.73;;;;;;;41.60;37.20;100864.16;4981490;28;20878;-83
2023/04/10 06:07:42;;;;;;;19.33;7.43;;;;;;;41.46;37.80;100869.06;4979532;28;20427;-82
2023/04/10 06:10:09;;;;;;;14.73;6.90;;;;;;;41.55;37.54;100874.44;4999750;28;20421;-82
2023/04/10 06:12:35;;;;;;;25.23;8.00;;;;;;;41.53;37.17;100874.00;4978762;28;20274;-82
2023/04/10 06:15:01;;;;;;;25.57;8.70;;;;;;;41.26;38.30;100873.34;4994370;28;20427;-82
2023/04/10 06:17:27;;;;;;;14.93;5.73;;;;;;;41.41;37.84;100876.63;4978255;28;20458;-82
2023/04/10 06:19:55;;;;;;;13.13;6.77;;;;;;;41.31;38.20;100877.78;4981843;28;20190;-82
2023/04/10 06:22:21;;;;;;;18.07;6.43;;;;;;;41.34;38.09;100886.13;4975054;28;20438;-82
2023/04/10 06:24:47;;;;;;;14.40;7.93;;;;;;;41.49;37.90;100892.09;4979076;28;20511;-82
2023/04/10 06:27:13;;;;;;;18.23;7.00;;;;;;;41.53;37.84;100903.94;4976244;28;20430;-82
2023/04/10 06:29:39;;;;;;;15.83;8.80;;;;;;;41.11;38.14;100897.59;4983795;28;20191;-82
2023/04/10 06:32:05;;;;;;;13.90;6.50;;;;;;;41.55;37.21;100902.47;4972339;28;21002;-82
2023/04/10 06:34:31;;;;;;;23.33;7.27;;;;;;;41.56;37.10;100908.75;4978900;28;20520;-82
2023/04/10 06:36:57;;;;;;;15.53;6.50;;;;;;;41.46;37.13;100893.59;4965704;28;20241;-83
2023/04/10 06:39:26;;;;;;;12.40;6.50;;;;;;;41.61;37.26;100913.97;4964317;28;20449;-82
2023/04/10 06:41:52;;;;;;;24.00;7.73;;;;;;;41.70;37.23;100928.34;4961763;28;20274;-82
2023/04/10 06:44:18;;;;;;;26.07;11.17;;;;;;;41.78;37.13;100927.50;4965751;28;20606;-83
2023/04/10 06:46:44;;;;;;;35.83;12.07;;;;;;;41.74;36.82;100920.28;4958672;28;20730;-83
2023/04/10 06:49:10;;;;;;;31.53;11.80;;;;;;;41.72;36.95;100931.53;4958356;28;20219;-83
2023/04/10 06:51:36;;;;;;;20.90;12.00;;;;;;;41.83;37.08;100951.03;4961772;28;20522;-82
2023/04/10 06:54:02;;;;;;;30.00;12.57;;;;;;;41.85;36.99;100954.22;4983127;28;20445;-83
2023/04/10 06:56:28;;;;;;;23.43;12.47;;;;;;;41.80;36.92;100963.38;4971745;28;20434;-82
2023/04/10 06:58:54;;;;;;;22.60;11.80;;;;;;;41.86;36.67;100966.72;4971925;28;20186;-84
2023/04/10 07:01:19;;;;;;;24.30;11.53;;;;;;;41.78;36.53;100962.94;4972010;28;20258;-82
2023/04/10 07:03:45;;;;;;;21.80;12.10;;;;;;;41.92;36.54;100975.50;4980475;28;20673;-82
2023/04/10 07:06:12;;;;;;;20.53;10.30;;;;;;;41.99;36.47;100982.03;4970380;28;20197;-82
2023/04/10 07:08:38;;;;;;;22.77;10.47;;;;;;;41.96;36.68;100981.88;4980346;28;20217;-82
2023/04/10 07:11:04;;;;;;;27.80;12.00;;;;;;;41.98;36.55;100976.88;4972182;28;20418;-82
2023/04/10 07:13:30;;;;;;;27.60;12.90;;;;;;;42.01;36.54;100987.94;4980497;28;20304;-82
2023/04/10 07:15:56;;;;;;;33.27;12.23;;;;;;;41.90;36.47;100977.75;4980412;28;20581;-82
2023/04/10 07:18:22;;;;;;;27.10;12.70;;;;;;;41.97;36.67;100994.38;4971957;28;20632;-82
2023/04/10 07:20:50;;;;;;;20.00;11.57;;;;;;;42.07;36.24;100999.44;4983001;28;20437;-83
2023/04/10 07:23:16;;;;;;;19.20;12.17;;;;;;;42.05;36.39;100990.78;4987777;28;20222;-83
2023/04/10 07:25:42;;;;;;;24.60;11.50;;;;;;;42.06;36.18;101006.03;4968290;28;20462;-83
2023/04/10 07:28:08;;;;;;;26.43;14.63;;;;;;;42.19;35.98;101015.09;4976547;28;20678;-83
2023/04/10 07:30:34;;;;;;;31.37;12.37;;;;;;;42.17;36.31;101020.84;4975349;28;20445;-85
2023/04/10 07:32:59;;;;;;;24.13;13.07;;;;;;;42.08;36.31;101023.63;4991213;28;20630;-85
2023/04/10 07:35:26;;;;;;;18.57;10.53;;;;;;;42.05;36.22;101039.84;4986605;28;20540;-81
2023/04/10 07:37:53;;;;;;;26.13;11.50;;;;;;;42.11;35.92;101050.25;4981330;28;20460;-83
2023/04/10 07:40:19;;;;;;;22.10;11.70;;;;;;;42.19;36.05;101051.34;4973548;28;20426;-81
2023/04/10 07:42:46;;;;;;;21.67;10.97;;;;;;;41.95;36.07;101045.69;4984875;28;20426;-84
2023/04/10 07:45:12;;;;;;;26.77;13.17;;;;;;;41.93;36.36;101042.47;4980550;28;20560;-83
2023/04/10 07:47:38;;;;;;;34.33;15.43;;;;;;;42.13;36.16;101049.91;4975818;28;20440;-82
2023/04/10 07:50:05;;;;;;;17.50;11.10;;;;;;;42.14;35.77;101054.22;4978324;28;20961;-81
2023/04/10 07:52:30;;;;;;;25.60;14.13;;;;;;;42.12;35.91;101043.66;4983618;28;20853;-82
2023/04/10 07:54:56;;;;;;;24.00;14.13;;;;;;;42.16;35.82;101060.16;4971593;28;21033;-82
2023/04/10 07:57:23;;;;;;;36.37;14.80;;;;;;;42.20;35.97;101060.31;4974997;28;20221;-81
2023/04/10 07:59:49;;;;;;;25.40;14.10;;;;;;;42.21;36.21;101059.16;4985365;28;20194;-82
2023/04/10 08:02:15;;;;;;;15.37;12.30;;;;;;;42.01;36.48;101068.91;4978116;28;20875;-81
2023/04/10 08:04:41;;;;;;;25.23;17.00;;;;;;;42.12;36.02;101070.91;4967697;28;20246;-83
2023/04/10 08:07:07;;;;;;;25.80;12.60;;;;;;;42.05;36.03;101061.63;4959097;28;20458;-83
2023/04/10 08:09:33;;;;;;;26.40;11.23;;;;;;;42.20;35.20;101063.03;4969656;28;20430;-87
2023/04/10 08:11:59;;;;;;;27.47;11.37;;;;;;;42.11;36.18;101076.66;4968780;28;20469;-82
2023/04/10 08:14:25;;;;;;;18.53;11.60;;;;;;;42.06;35.96;101055.09;4976941;28;20500;-83
2023/04/10 08:16:51;;;;;;;24.33;12.97;;;;;;;42.26;35.48;101078.84;4979408;28;20273;-82
2023/04/10 08:19:17;;;;;;;23.20;14.73;;;;;;;42.30;35.67;101079.00;4977080;28;20465;-81
2023/04/10 08:21:43;;;;;;;29.97;15.47;;;;;;;42.14;35.66;101076.81;4981350;28;20576;-81
2023/04/10 08:24:09;;;;;;;28.77;12.60;;;;;;;42.09;35.47;101068.81;4967706;28;20445;-80
2023/04/10 08:26:35;;;;;;;18.30;10.87;;;;;;;42.26;35.87;101072.59;4962364;28;20449;-81
2023/04/10 08:29:01;;;;;;;18.40;11.87;;;;;;;42.07;35.47;101056.66;4972527;28;20525;-81
2023/04/10 08:31:28;;;;;;;27.47;12.03;;;;;;;41.95;35.95;101067.50;4967654;28;20519;-82
2023/04/10 08:33:54;;;;;;;20.63;9.70;;;;;;;41.71;36.17;101070.78;4958269;28;20998;-81
2023/04/10 08:36:20;;;;;;;17.63;8.33;;;;;;;42.06;35.53;101071.44;4955300;28;20454;-82
2023/04/10 08:38:47;;;;;;;20.30;10.07;;;;;;;42.27;35.17;101075.00;4971223;28;20410;-81
2023/04/10 08:41:14;;;;;;;24.90;13.00;;;;;;;42.32;35.48;101074.00;4957333;28;20423;-82
2023/04/10 08:43:44;;;;;;;17.63;10.40;;;;;;;42.24;35.56;101056.59;4967076;28;20475;-82
2023/04/10 08:46:11;;;;;;;26.73;9.70;;;;;;;42.23;35.33;101073.25;4957935;28;20526;-81
2023/04/10 08:48:44;;;;;;;25.47;8.10;;;;;;;42.27;35.22;101072.28;4965243;28;20438;-81
2023/04/10 08:51:16;;;;;;;16.17;7.43;;;;;;;42.20;35.32;101088.34;4957221;28;20510;-82
2023/04/10 08:53:43;;;;;;;15.43;7.83;;;;;;;42.37;35.31;101084.72;4962342;28;20556;-82
2023/04/10 08:56:13;;;;;;;21.33;7.73;;;;;;;42.45;35.00;101086.56;4956300;28;20435;-81
2023/04/10 08:58:41;;;;;;;19.43;8.20;;;;;;;42.41;35.04;101080.19;4967534;28;20839;-82
2023/04/10 09:01:10;;;;;;;18.73;12.30;;;;;;;42.37;34.87;101093.69;4971966;28;20480;-80
2023/04/10 09:03:36;;;;;;;15.90;7.77;;;;;;;42.38;35.12;101089.03;4981023;28;20525;-79
2023/04/10 09:06:04;;;;;;;14.67;6.37;;;;;;;42.53;35.10;101088.44;4958949;28;20446;-80
2023/04/10 09:08:30;;;;;;;23.13;7.93;;;;;;;42.50;34.77;101091.84;4958292;28;20443;-80
2023/04/10 09:10:56;;;;;;;10.77;6.17;;;;;;;42.58;34.69;101098.38;4970527;28;20896;-80
2023/04/10 09:13:42;;;;;;;24.20;8.90;;;;;;;42.58;34.59;101082.81;4976230;28;21040;-80
2023/04/10 09:16:10;;;;;;;20.00;7.30;;;;;;;42.68;34.83;101086.28;5023805;22;20853;-80
2023/04/10 09:18:50;;;;;;;17.90;7.80;;;;;;;42.55;35.15;101088.13;4998089;28;20428;-79
2023/04/10 09:21:19;;;;;;;15.00;6.60;;;;;;;42.67;35.17;101088.22;5007843;28;20466;-79
2023/04/10 09:23:46;;;;;;;14.53;6.70;;;;;;;42.51;35.48;101089.91;4996071;28;20827;-80
2023/04/10 09:26:29;;;;;;;17.60;6.50;;;;;;;42.47;35.07;101081.56;4996892;28;20511;-79
2023/04/10 09:29:05;;;;;;;13.30;7.10;;;;;;;42.49;35.25;101075.81;5001578;28;20456;-80
2023/04/10 09:31:36;;;;;;;16.10;5.57;;;;;;;42.46;35.02;101066.34;5007989;28;20562;-80
2023/04/10 09:34:11;;;;;;;18.40;6.77;;;;;;;42.55;35.09;101075.28;5007073;28;20949;-80
2023/04/10 09:36:39;;;;;;;15.20;5.60;;;;;;;42.52;35.21;101062.28;5004529;28;20971;-80
2023/04/10 09:39:06;;;;;;;12.83;7.00;;;;;;;42.34;35.32;101056.19;5005989;28;20561;-79
2023/04/10 09:41:32;;;;;;;12.63;5.60;;;;;;;42.37;35.54;101063.69;5009176;28;20432;-80
2023/04/10 09:44:10;;;;;;;20.60;8.30;;;;;;;42.52;35.26;101072.41;5000978;28;20470;-80
2023/04/10 09:46:36;;;;;;;17.73;6.23;;;;;;;42.59;35.00;101061.78;5018661;28;20545;-79
2023/04/10 09:49:04;;;;;;;12.70;6.53;;;;;;;42.52;35.64;101061.50;5007753;28;20906;-80
2023/04/10 09:51:34;;;;;;;16.03;5.87;;;;;;;42.69;35.25;101061.38;5013963;28;20421;-80
2023/04/10 09:54:04;;;;;;;14.07;5.80;;;;;;;42.81;35.20;101064.16;4995995;28;20429;-80
2023/04/10 09:56:33;;;;;;;14.53;7.20;;;;;;;42.75;35.03;101061.97;5008923;28;20455;-80
2023/04/10 09:59:00;;;;;;;22.10;6.20;;;;;;;42.68;34.93;101056.28;5023313;28;20903;-80
2023/04/10 10:01:27;;;;;;;17.33;6.10;;;;;;;42.68;35.09;101051.59;4994941;28;20417;-80
2023/04/10 10:03:55;;;;;;;13.70;6.40;;;;;;;42.64;35.28;101051.47;5012724;28;20524;-81
2023/04/10 10:06:22;;;;;;;14.60;6.30;;;;;;;42.56;35.48;101063.22;4995700;28;20519;-82
2023/04/10 10:08:49;;;;;;;10.60;4.90;;;;;;;42.65;35.41;101061.25;4997136;28;20468;-82
2023/04/10 10:11:22;;;;;;;17.07;6.87;;;;;;;42.57;35.69;101069.47;5000368;28;21051;-84
2023/04/10 10:13:56;;;;;;;11.63;6.00;;;;;;;42.65;35.64;101074.09;4995424;28;20464;-81
2023/04/10 10:16:42;;;;;;;12.80;6.03;;;;;;;42.74;35.47;101083.00;4998904;28;20555;-82
2023/04/10 10:19:22;;;;;;;11.10;6.23;;;;;;;42.76;35.42;101080.72;4998282;28;20941;-81
2023/04/10 10:21:50;;;;;;;12.23;6.10;;;;;;;42.80;35.31;101091.78;4996992;28;20441;-82
2023/04/10 10:24:20;;;;;;;12.50;5.40;;;;;;;42.83;34.66;101080.97;5002736;28;20424;-82
2023/04/10 10:26:47;;;;;;;15.70;6.40;;;;;;;42.83;34.76;101089.16;5009562;28;20466;-81
2023/04/10 10:29:16;;;;;;;15.17;5.53;;;;;;;42.83;34.64;101094.63;5006204;28;20452;-81
2023/04/10 10:31:43;;;;;;;16.00;5.20;;;;;;;42.65;35.08;101080.34;4996037;28;20457;-81
2023/04/10 10:34:09;;;;;;;17.40;6.67;;;;;;;42.67;35.37;101090.94;5001727;28;20992;-80
2023/04/10 10:36:36;;;;;;;17.03;6.90;;;;;;;42.78;34.68;101086.63;4998337;28;20454;-82
2023/04/10 10:39:17;;;;;;;14.17;6.40;;;;;;;42.75;35.05;101068.22;5010501;28;20593;-83
2023/04/10 10:41:56;;;;;;;15.00;6.67;;;;;;;42.83;34.59;101077.47;4992587;28;20417;-81
2023/04/10 10:44:42;;;;;;;10.43;4.90;;;;;;;43.01;34.66;101087.09;4992982;28;20457;-82
2023/04/10 10:47:23;;;;;;;14.33;6.60;;;;;;;42.92;34.63;101078.19;4991264;28;20425;-81
2023/04/10 10:49:57;;;;;;;11.70;5.50;;;;;;;42.93;34.62;101077.03;5002112;28;20509;-81
2023/04/10 10:52:44;;;;;;;13.53;5.93;;;;;;;42.92;34.81;101065.34;4991461;28;20496;-82
2023/04/10 10:55:24;;;;;;;14.80;6.67;;;;;;;42.96;34.89;101059.19;4993305;28;20433;-81
2023/04/10 10:57:52;;;;;;;14.43;5.13;;;;;;;42.89;35.00;101055.06;4992583;28;20421;-82
2023/04/10 11:00:23;;;;;;;17.03;5.33;;;;;;;42.83;35.10;101055.63;5002713;28;20520;-82
2023/04/10 11:03:07;;;;;;;9.97;4.63;;;;;;;42.94;34.90;101054.06;4991218;28;20422;-82
2023/04/10 11:06:05;;;;;;;15.03;6.73;;;;;;;42.84;35.04;101051.75;4991068;28;21040;-83
2023/04/10 11:08:41;;;;;;;11.70;5.27;;;;;;;42.87;34.64;101037.47;4995774;28;20416;-81
2023/04/10 11:11:08;;;;;;;15.87;6.23;;;;;;;43.04;34.81;101029.13;4999548;28;20429;-81
2023/04/10 11:13:39;;;;;;;20.73;6.23;;;;;;;42.81;35.12;101017.78;4992827;28;20453;-81
2023/04/10 11:16:11;;;;;;;23.67;6.93;;;;;;;43.06;34.80;101024.13;4989756;28;20498;-79
2023/04/10 11:18:46;;;;;;;18.27;6.20;;;;;;;43.13;34.65;101020.81;5010673;28;20424;-81
2023/04/10 11:21:17;;;;;;;18.03;7.63;;;;;;;42.90;34.70;101023.91;4991308;28;20450;-82